Time;durP1;ratioP1;P1;durP2;ratioP2;P2;SDS_P1;SDS_P2;PMS_P1;PMS_P2;Temp;Humidity;BMP_temperature;BMP_pressure;BME280_temperature;BME280_humidity;BME280_pressure;Samples;Min_cycle;Max_cycle;Signal;HPM_P1;HPM_P2
2023/10/03 00:00:27;;;;;;;48.53;35.65;;;17.80;99.90;;;;;;5113457;27;20118;-80
2023/10/03 00:02:55;;;;;;;44.90;34.33;;;17.70;99.90;;;;;;5109098;27;20036;-80
2023/10/03 00:05:22;;;;;;;47.42;35.90;;;17.70;99.90;;;;;;5112483;27;20035;-80
2023/10/03 00:07:55;;;;;;;59.05;40.70;;;17.70;99.90;;;;;;5127903;27;20070;-79
2023/10/03 00:10:21;;;;;;;58.88;40.38;;;17.70;99.90;;;;;;5126078;27;20299;-79
2023/10/03 00:12:48;;;;;;;45.38;34.95;;;17.70;99.90;;;;;;5114884;27;20039;-79
2023/10/03 00:15:16;;;;;;;46.75;34.85;;;17.60;99.90;;;;;;5127642;27;20507;-79
2023/10/03 00:17:42;;;;;;;42.42;32.42;;;17.60;99.90;;;;;;5127000;27;20073;-79
2023/10/03 00:20:12;;;;;;;49.80;38.95;;;17.60;99.90;;;;;;5107696;27;20063;-79
2023/10/03 00:22:39;;;;;;;47.88;34.83;;;17.60;99.90;;;;;;5125508;27;20039;-79
2023/10/03 00:25:16;;;;;;;50.60;37.00;;;17.60;99.90;;;;;;5116589;27;20075;-79
2023/10/03 00:27:42;;;;;;;46.47;35.85;;;17.60;99.90;;;;;;5108477;27;20155;-78
2023/10/03 00:30:10;;;;;;;45.20;35.50;;;17.60;99.90;;;;;;5128651;27;20035;-79
2023/10/03 00:32:37;;;;;;;43.22;33.55;;;17.60;99.90;;;;;;5109525;27;20050;-79
2023/10/03 00:35:04;;;;;;;43.75;32.80;;;17.60;99.90;;;;;;5126768;27;20401;-79
2023/10/03 00:37:30;;;;;;;46.95;33.58;;;17.60;99.90;;;;;;5112769;27;20054;-78
2023/10/03 00:39:57;;;;;;;48.95;35.22;;;17.60;99.90;;;;;;5109951;27;20057;-79
2023/10/03 00:42:24;;;;;;;48.17;33.72;;;17.50;99.90;;;;;;5108410;27;20067;-80
2023/10/03 00:44:50;;;;;;;48.05;34.53;;;17.60;99.90;;;;;;5126466;27;20100;-78
2023/10/03 00:47:15;;;;;;;43.60;32.38;;;17.60;99.90;;;;;;5113738;27;20523;-79
2023/10/03 00:49:43;;;;;;;51.58;37.60;;;17.60;99.90;;;;;;5122061;27;20078;-79
2023/10/03 00:52:10;;;;;;;42.00;32.17;;;17.60;99.90;;;;;;5128452;27;20035;-79
2023/10/03 00:54:40;;;;;;;39.10;29.77;;;17.50;99.90;;;;;;5128292;27;20051;-80
2023/10/03 00:57:08;;;;;;;;;;;17.50;99.90;;;;;;5106693;27;20481;-79
2023/10/03 00:59:34;;;;;;;41.92;30.33;;;17.50;99.90;;;;;;5114170;27;19970;-79
2023/10/03 01:02:06;;;;;;;44.15;33.13;;;17.50;99.90;;;;;;5119735;27;20504;-80
2023/10/03 01:04:34;;;;;;;46.95;33.08;;;17.50;99.90;;;;;;5108075;27;20035;-79
2023/10/03 01:07:00;;;;;;;40.72;31.52;;;17.50;99.90;;;;;;5127113;27;20051;-79
2023/10/03 01:09:29;;;;;;;43.85;32.25;;;17.50;99.90;;;;;;5129558;27;20226;-79
2023/10/03 01:11:56;;;;;;;44.15;32.17;;;17.50;99.90;;;;;;5126938;27;20181;-79
2023/10/03 01:14:23;;;;;;;45.40;31.65;;;17.50;99.90;;;;;;5125386;27;20082;-78
2023/10/03 01:16:49;;;;;;;39.88;29.20;;;17.40;99.90;;;;;;5123241;27;20224;-78
2023/10/03 01:19:25;;;;;;;36.78;26.27;;;17.50;99.90;;;;;;5109092;27;20115;-79
2023/10/03 01:21:51;;;;;;;40.45;29.08;;;17.50;99.90;;;;;;5110795;27;20035;-79
2023/10/03 01:24:21;;;;;;;39.72;28.90;;;17.50;99.90;;;;;;5114586;27;20121;-78
2023/10/03 01:26:47;;;;;;;39.45;27.23;;;17.50;99.90;;;;;;5125012;27;20055;-78
2023/10/03 01:29:13;;;;;;;39.08;27.45;;;17.50;99.90;;;;;;5112562;27;20046;-78
2023/10/03 01:31:41;;;;;;;34.50;24.02;;;17.50;99.90;;;;;;5114704;27;20043;-78
2023/10/03 01:34:07;;;;;;;39.65;27.55;;;17.50;99.90;;;;;;5105501;27;20039;-78
2023/10/03 01:36:32;;;;;;;32.95;24.33;;;17.50;99.90;;;;;;5124498;27;20061;-78
2023/10/03 01:38:58;;;;;;;37.15;25.50;;;17.50;99.90;;;;;;5124614;27;20046;-79
2023/10/03 01:41:24;;;;;;;36.15;24.77;;;17.50;99.90;;;;;;5127784;27;20393;-76
2023/10/03 01:43:50;;;;;;;35.53;24.35;;;17.50;99.90;;;;;;5104751;27;20411;-78
2023/10/03 01:46:18;;;;;;;35.03;24.85;;;17.40;99.90;;;;;;5109769;27;20115;-78
2023/10/03 01:48:44;;;;;;;36.55;23.77;;;17.50;99.90;;;;;;5121464;27;20107;-77
2023/10/03 01:51:10;;;;;;;37.38;25.27;;;17.50;99.90;;;;;;5109421;27;20182;-78
2023/10/03 01:53:38;;;;;;;37.92;26.00;;;17.50;99.90;;;;;;5123812;27;20576;-78
2023/10/03 01:56:05;;;;;;;34.78;24.33;;;17.50;99.90;;;;;;5106932;27;20131;-79
2023/10/03 01:58:32;;;;;;;37.40;24.25;;;17.40;99.90;;;;;;5107276;27;20075;-77
2023/10/03 02:00:57;;;;;;;37.00;24.33;;;17.40;99.90;;;;;;5113960;27;20095;-78
2023/10/03 02:03:23;;;;;;;39.55;25.73;;;17.40;99.90;;;;;;5103800;27;20039;-79
2023/10/03 02:05:49;;;;;;;33.90;24.20;;;17.40;99.90;;;;;;5110440;27;20074;-78
2023/10/03 02:08:15;;;;;;;34.38;23.05;;;17.40;99.90;;;;;;5125744;27;20524;-77
2023/10/03 02:10:45;;;;;;;38.15;25.33;;;17.40;99.90;;;;;;5103696;27;20450;-79
2023/10/03 02:13:15;;;;;;;33.75;24.05;;;17.40;99.90;;;;;;5121295;27;20068;-78
2023/10/03 02:15:44;;;;;;;37.72;25.77;;;17.40;99.90;;;;;;5123294;27;20042;-78
2023/10/03 02:18:14;;;;;;;39.38;24.77;;;17.40;99.90;;;;;;5105922;27;20043;-78
2023/10/03 02:20:52;;;;;;;;;;;17.40;99.90;;;;;;5111457;27;20486;-78
2023/10/03 02:23:20;;;;;;;32.95;23.40;;;17.40;99.90;;;;;;5127052;27;19923;-78
2023/10/03 02:25:54;;;;;;;37.67;24.10;;;17.40;99.90;;;;;;5127103;27;20111;-77
2023/10/03 02:28:20;;;;;;;37.33;24.48;;;17.40;99.90;;;;;;5135040;27;20509;-79
2023/10/03 02:30:50;;;;;;;35.80;24.17;;;17.40;99.90;;;;;;5134566;27;20423;-77
2023/10/03 02:33:17;;;;;;;35.90;23.75;;;17.40;99.90;;;;;;5116574;27;20042;-77
2023/10/03 02:35:47;;;;;;;35.95;24.10;;;17.40;99.90;;;;;;5132988;27;20135;-77
2023/10/03 02:38:17;;;;;;;36.17;24.67;;;17.40;99.90;;;;;;5114637;27;20035;-79
2023/10/03 02:40:43;;;;;;;32.15;22.67;;;17.40;99.90;;;;;;5115872;27;20073;-76
2023/10/03 02:43:10;;;;;;;35.88;23.45;;;17.40;99.90;;;;;;5132038;27;20038;-77
2023/10/03 02:45:38;;;;;;;35.25;23.90;;;17.50;99.90;;;;;;5114277;27;20062;-78
2023/10/03 02:48:14;;;;;;;36.38;23.25;;;17.40;99.90;;;;;;5128494;27;20051;-78
2023/10/03 02:50:50;;;;;;;38.75;23.88;;;17.50;99.90;;;;;;5116583;27;20052;-78
2023/10/03 02:53:20;;;;;;;34.40;23.27;;;17.50;99.90;;;;;;5113026;27;20728;-77
2023/10/03 02:55:54;;;;;;;35.65;23.70;;;17.50;99.90;;;;;;5114653;27;20455;-78
2023/10/03 02:58:20;;;;;;;36.97;24.45;;;17.60;99.90;;;;;;5109233;27;20127;-77
2023/10/03 03:00:56;;;;;;;35.67;22.85;;;17.60;99.90;;;;;;5111000;27;20050;-78
2023/10/03 03:03:32;;;;;;;33.85;24.05;;;17.60;99.90;;;;;;5112877;27;20504;-78
2023/10/03 03:06:09;;;;;;;34.13;22.98;;;17.60;99.90;;;;;;5129523;27;20054;-78
2023/10/03 03:08:38;;;;;;;37.67;24.55;;;17.60;99.90;;;;;;5111115;27;20050;-76
2023/10/03 03:11:05;;;;;;;34.75;23.50;;;17.70;99.90;;;;;;5110799;27;20462;-78
2023/10/03 03:13:32;;;;;;;34.95;22.60;;;17.70;99.90;;;;;;5127785;27;20148;-77
2023/10/03 03:16:00;;;;;;;33.30;23.25;;;17.70;99.90;;;;;;5133417;27;20077;-78
2023/10/03 03:18:30;;;;;;;37.67;24.15;;;17.70;99.90;;;;;;5109758;27;20035;-78
2023/10/03 03:20:59;;;;;;;34.78;22.90;;;17.70;99.90;;;;;;5131720;27;20416;-77
2023/10/03 03:23:30;;;;;;;35.97;22.17;;;17.80;99.90;;;;;;5128845;27;20042;-78
2023/10/03 03:26:17;;;;;;;36.03;21.80;;;17.80;99.90;;;;;;5112813;27;20150;-79
2023/10/03 03:28:44;;;;;;;35.85;23.05;;;17.80;99.90;;;;;;5133410;27;20043;-76
2023/10/03 03:31:20;;;;;;;34.70;23.50;;;17.80;99.90;;;;;;5134025;27;20098;-78
2023/10/03 03:33:49;;;;;;;34.50;23.58;;;17.80;99.90;;;;;;5131359;27;20050;-78
2023/10/03 03:36:20;;;;;;;33.30;21.50;;;17.90;99.90;;;;;;5114647;27;20073;-78
2023/10/03 03:38:51;;;;;;;37.47;22.65;;;17.90;99.90;;;;;;5128804;27;20341;-78
2023/10/03 03:41:18;;;;;;;31.73;21.27;;;17.90;99.90;;;;;;5109916;27;20045;-79
2023/10/03 03:43:44;;;;;;;36.80;22.05;;;17.90;99.90;;;;;;5110365;27;20059;-78
2023/10/03 03:46:12;;;;;;;37.42;23.30;;;17.90;99.90;;;;;;5127527;27;20050;-78
2023/10/03 03:48:40;;;;;;;33.22;21.75;;;17.90;99.90;;;;;;5108178;27;20405;-78
2023/10/03 03:51:14;;;;;;;30.98;20.65;;;17.90;99.90;;;;;;5131045;27;20326;-79
2023/10/03 03:53:44;;;;;;;30.70;20.67;;;17.90;99.90;;;;;;5114513;27;20171;-76
2023/10/03 03:56:12;;;;;;;34.15;22.27;;;17.90;99.90;;;;;;5134339;27;20129;-79
2023/10/03 03:58:45;;;;;;;31.30;21.42;;;18.00;99.90;;;;;;5127449;27;20261;-78
2023/10/03 04:01:14;;;;;;;35.42;22.15;;;17.90;99.90;;;;;;5109842;27;20046;-77
2023/10/03 04:03:42;;;;;;;30.80;20.45;;;18.00;99.90;;;;;;5118384;27;20039;-78
2023/10/03 04:06:09;;;;;;;29.73;20.70;;;17.90;99.90;;;;;;5128226;27;20126;-78
2023/10/03 04:08:35;;;;;;;36.20;21.88;;;17.90;99.90;;;;;;5113507;27;20046;-78
2023/10/03 04:11:02;;;;;;;30.95;20.08;;;18.00;99.90;;;;;;5128242;27;20811;-78
2023/10/03 04:13:30;;;;;;;33.45;21.58;;;18.00;99.90;;;;;;5108448;27;20043;-78
2023/10/03 04:16:01;;;;;;;32.15;20.83;;;18.00;99.90;;;;;;5124966;27;20051;-78
2023/10/03 04:18:27;;;;;;;33.22;21.88;;;17.90;99.90;;;;;;5110403;27;20039;-78
2023/10/03 04:20:53;;;;;;;32.55;21.20;;;18.00;99.90;;;;;;5114897;27;20045;-78
2023/10/03 04:23:19;;;;;;;32.80;20.48;;;18.00;99.90;;;;;;5129266;27;20519;-77
2023/10/03 04:25:45;;;;;;;31.75;20.55;;;18.00;99.90;;;;;;5129151;27;20042;-79
2023/10/03 04:28:12;;;;;;;34.17;20.70;;;18.00;99.90;;;;;;5127871;27;20469;-78
2023/10/03 04:30:39;;;;;;;31.50;19.58;;;18.00;99.90;;;;;;5127369;27;20046;-79
2023/10/03 04:33:05;;;;;;;32.20;20.95;;;18.10;99.90;;;;;;5110656;27;20034;-79
2023/10/03 04:35:31;;;;;;;33.75;20.40;;;18.10;99.90;;;;;;5110376;27;20043;-79
2023/10/03 04:37:57;;;;;;;30.52;20.63;;;18.00;99.90;;;;;;5124528;27;20386;-79
2023/10/03 04:40:28;;;;;;;28.63;19.83;;;18.10;99.90;;;;;;5128600;27;20064;-78
2023/10/03 04:43:07;;;;;;;34.25;20.45;;;18.10;99.90;;;;;;5126864;27;20771;-77
2023/10/03 04:45:35;;;;;;;28.48;18.02;;;18.10;99.90;;;;;;5107935;27;20493;-78
2023/10/03 04:48:01;;;;;;;29.15;19.02;;;18.10;99.90;;;;;;5127708;27;20489;-77
2023/10/03 04:50:27;;;;;;;33.38;19.80;;;18.10;99.90;;;;;;5132426;27;20529;-79
2023/10/03 04:52:53;;;;;;;29.45;19.80;;;18.20;99.90;;;;;;5125938;27;20043;-77
2023/10/03 04:55:25;;;;;;;29.23;18.98;;;18.20;99.90;;;;;;5128663;27;20066;-77
2023/10/03 04:57:51;;;;;;;31.98;19.30;;;18.30;99.90;;;;;;5112202;27;20055;-78
2023/10/03 05:00:19;;;;;;;27.67;18.25;;;18.30;99.90;;;;;;5128013;27;20064;-77
2023/10/03 05:02:47;;;;;;;30.30;18.92;;;18.40;99.90;;;;;;5116644;27;20084;-78
2023/10/03 05:05:23;;;;;;;29.48;18.65;;;18.40;99.90;;;;;;5110125;27;20042;-77
2023/10/03 05:07:54;;;;;;;28.33;18.45;;;18.40;99.90;;;;;;5109508;27;20051;-77
2023/10/03 05:10:20;;;;;;;29.08;19.05;;;18.40;99.90;;;;;;5122074;27;20397;-77
2023/10/03 05:12:47;;;;;;;29.60;18.35;;;18.50;99.90;;;;;;5127020;27;20061;-77
2023/10/03 05:15:14;;;;;;;32.28;20.13;;;18.50;99.90;;;;;;5123158;27;20045;-78
2023/10/03 05:17:44;;;;;;;30.02;18.65;;;18.50;99.90;;;;;;5111758;27;20077;-76
2023/10/03 05:20:12;;;;;;;26.38;17.95;;;18.50;99.90;;;;;;5124007;27;20960;-77
2023/10/03 05:22:37;;;;;;;29.23;17.17;;;18.60;99.90;;;;;;5113346;27;20042;-76
2023/10/03 05:25:11;;;;;;;27.52;17.80;;;18.60;99.90;;;;;;5110437;27;20046;-78
2023/10/03 05:27:41;;;;;;;27.48;17.45;;;18.60;99.90;;;;;;5113346;27;20116;-76
2023/10/03 05:30:08;;;;;;;28.42;17.42;;;18.60;99.90;;;;;;5130248;27;20070;-78
2023/10/03 05:32:38;;;;;;;26.88;16.98;;;18.60;99.90;;;;;;5125708;27;20039;-78
2023/10/03 05:35:06;;;;;;;27.15;17.23;;;18.70;99.90;;;;;;5124393;27;20043;-77
2023/10/03 05:37:33;;;;;;;27.55;16.33;;;18.60;99.90;;;;;;5122403;27;20039;-77
2023/10/03 05:40:00;;;;;;;30.98;16.95;;;18.70;99.90;;;;;;5126800;27;20563;-76
2023/10/03 05:42:27;;;;;;;27.73;15.93;;;18.70;99.90;;;;;;5111160;27;20134;-76
2023/10/03 05:44:53;;;;;;;26.27;16.90;;;18.80;99.90;;;;;;5109013;27;20436;-76
2023/10/03 05:47:19;;;;;;;29.98;17.00;;;18.80;99.90;;;;;;5109439;27;20043;-77
2023/10/03 05:49:45;;;;;;;27.33;17.08;;;18.80;99.90;;;;;;5113618;27;20080;-76
2023/10/03 05:52:11;;;;;;;30.33;17.42;;;18.80;99.90;;;;;;5125960;27;20043;-76
2023/10/03 05:54:38;;;;;;;25.90;16.25;;;18.90;99.90;;;;;;5114727;27;20034;-76
2023/10/03 05:57:04;;;;;;;26.25;17.23;;;18.90;99.90;;;;;;5129632;27;20039;-77
2023/10/03 05:59:30;;;;;;;23.33;15.02;;;18.90;99.90;;;;;;5124706;27;20080;-77
2023/10/03 06:01:58;;;;;;;31.15;16.15;;;18.90;99.90;;;;;;5129138;27;20054;-77
2023/10/03 06:04:27;;;;;;;24.15;14.13;;;18.90;99.90;;;;;;5127204;27;20504;-79
2023/10/03 06:06:54;;;;;;;23.58;13.40;;;19.00;99.90;;;;;;5131207;27;20046;-77
2023/10/03 06:09:20;;;;;;;25.92;13.15;;;18.90;99.90;;;;;;5112794;27;20489;-76
2023/10/03 06:11:46;;;;;;;26.60;12.98;;;18.90;99.90;;;;;;5110430;27;20053;-77
2023/10/03 06:14:12;;;;;;;23.00;11.85;;;18.90;99.90;;;;;;5129290;27;20154;-77
2023/10/03 06:16:41;;;;;;;23.02;12.00;;;18.90;99.90;;;;;;5130294;27;20050;-76
2023/10/03 06:19:08;;;;;;;20.80;11.18;;;18.90;99.90;;;;;;5128432;27;20046;-77
2023/10/03 06:21:34;;;;;;;17.95;9.85;;;18.90;99.90;;;;;;5110693;27;20042;-77
2023/10/03 06:24:00;;;;;;;18.88;10.00;;;18.80;99.90;;;;;;5131918;27;20039;-77
2023/10/03 06:26:26;;;;;;;18.35;10.10;;;18.80;99.90;;;;;;5125201;27;20486;-75
2023/10/03 06:28:52;;;;;;;17.80;9.75;;;18.80;99.90;;;;;;5132376;27;20049;-77
2023/10/03 06:31:18;;;;;;;20.52;8.98;;;18.80;99.90;;;;;;5127936;27;20038;-77
2023/10/03 06:33:44;;;;;;;16.95;8.85;;;18.80;99.90;;;;;;5112342;27;20043;-76
2023/10/03 06:36:11;;;;;;;20.30;8.35;;;18.80;99.90;;;;;;5131572;27;20039;-77
2023/10/03 06:38:38;;;;;;;18.08;8.60;;;18.80;99.90;;;;;;5116968;27;20075;-77
2023/10/03 06:41:05;;;;;;;18.42;7.70;;;18.70;99.90;;;;;;5115168;27;20047;-78
2023/10/03 06:43:32;;;;;;;20.23;7.97;;;18.70;99.90;;;;;;5130819;27;20499;-77
2023/10/03 06:45:58;;;;;;;15.98;7.55;;;18.70;99.90;;;;;;5126299;27;20051;-75
2023/10/03 06:48:24;;;;;;;16.98;6.13;;;18.70;99.90;;;;;;5130202;27;20043;-77
2023/10/03 06:50:50;;;;;;;15.27;6.32;;;18.70;99.90;;;;;;5110107;27;20054;-76
2023/10/03 06:53:22;;;;;;;16.30;5.95;;;18.70;99.90;;;;;;5127949;27;20289;-76
2023/10/03 06:55:51;;;;;;;15.38;5.40;;;18.60;99.90;;;;;;5112344;27;20080;-77
2023/10/03 06:58:17;;;;;;;12.63;5.20;;;18.60;99.90;;;;;;5128547;27;20096;-77
2023/10/03 07:00:43;;;;;;;10.45;5.35;;;18.60;99.90;;;;;;5127127;27;20125;-77
2023/10/03 07:03:09;;;;;;;12.07;5.00;;;18.60;99.90;;;;;;5117777;27;20053;-77
2023/10/03 07:05:34;;;;;;;13.55;5.15;;;18.50;99.90;;;;;;5113707;27;20047;-78
2023/10/03 07:08:00;;;;;;;13.23;4.95;;;18.60;99.90;;;;;;5128648;27;20073;-76
2023/10/03 07:10:26;;;;;;;13.18;5.00;;;18.60;99.90;;;;;;5110528;27;20038;-77
2023/10/03 07:12:52;;;;;;;13.98;4.82;;;18.60;99.90;;;;;;5114008;27;20050;-77
2023/10/03 07:15:18;;;;;;;13.00;5.60;;;18.60;99.90;;;;;;5122874;27;20053;-77
2023/10/03 07:17:44;;;;;;;12.70;5.47;;;18.60;99.90;;;;;;5113013;27;20058;-76
2023/10/03 07:20:12;;;;;;;13.27;5.97;;;18.60;99.90;;;;;;5129109;27;20045;-76
2023/10/03 07:22:39;;;;;;;19.77;6.35;;;18.50;99.90;;;;;;5113477;27;20137;-77
2023/10/03 07:25:08;;;;;;;17.05;6.65;;;18.50;99.90;;;;;;5127964;27;20276;-77
2023/10/03 07:27:45;;;;;;;15.60;6.18;;;18.40;99.90;;;;;;5104473;27;20501;-76
2023/10/03 07:30:11;;;;;;;12.48;5.82;;;18.30;99.90;;;;;;5134841;27;20034;-77
2023/10/03 07:32:38;;;;;;;13.40;6.55;;;18.20;99.90;;;;;;5106638;27;20490;-76
2023/10/03 07:35:06;;;;;;;15.10;6.60;;;18.10;99.90;;;;;;5119715;27;20046;-81
2023/10/03 07:37:33;;;;;;;14.23;6.47;;;18.10;99.90;;;;;;5094285;27;20215;-80
2023/10/03 07:40:00;;;;;;;11.63;6.22;;;18.00;99.90;;;;;;5112132;27;20723;-81
2023/10/03 07:42:26;;;;;;;14.57;6.57;;;18.00;99.90;;;;;;5112061;27;20124;-80
2023/10/03 07:44:52;;;;;;;15.20;6.60;;;18.00;99.90;;;;;;5113259;27;20550;-80
2023/10/03 07:47:20;;;;;;;17.15;6.75;;;17.90;99.90;;;;;;5113230;27;20058;-80
2023/10/03 07:49:48;;;;;;;13.68;7.10;;;17.90;99.90;;;;;;5096998;27;20103;-80
2023/10/03 07:52:17;;;;;;;17.40;7.25;;;17.90;99.90;;;;;;5113063;27;20047;-82
2023/10/03 07:54:46;;;;;;;16.92;7.68;;;17.90;99.90;;;;;;5096324;27;20485;-83
2023/10/03 07:57:13;;;;;;;16.15;7.70;;;17.90;99.90;;;;;;5096469;27;20724;-83
2023/10/03 07:59:39;;;;;;;16.48;8.30;;;17.80;99.90;;;;;;5111951;27;20504;-82
2023/10/03 08:02:10;;;;;;;14.65;7.88;;;17.80;99.90;;;;;;5112706;27;20057;-83
2023/10/03 08:04:41;;;;;;;15.50;7.30;;;17.80;99.90;;;;;;5096241;27;20173;-82
2023/10/03 08:07:07;;;;;;;14.23;8.00;;;17.80;99.90;;;;;;5112711;27;20181;-82
2023/10/03 08:09:33;;;;;;;14.60;7.47;;;17.70;99.90;;;;;;5091991;27;20056;-82
2023/10/03 08:11:59;;;;;;;13.18;7.20;;;17.70;99.90;;;;;;5096444;27;20043;-82
2023/10/03 08:14:26;;;;;;;13.05;7.25;;;17.70;99.90;;;;;;5113212;27;20102;-82
2023/10/03 08:16:56;;;;;;;18.52;7.38;;;17.60;99.90;;;;;;5110199;27;20089;-76
2023/10/03 08:19:24;;;;;;;13.48;6.20;;;17.60;99.90;;;;;;5111615;27;20081;-76
2023/10/03 08:21:55;;;;;;;11.73;5.32;;;17.60;99.90;;;;;;5094353;27;21208;-76
2023/10/03 08:24:24;;;;;;;;;;;17.60;99.90;;;;;;5095109;27;20053;-76
2023/10/03 08:26:58;;;;;;;12.90;5.78;;;17.60;99.90;;;;;;5094641;27;19927;-76
2023/10/03 08:29:28;;;;;;;14.65;5.22;;;17.50;99.90;;;;;;5096153;27;20053;-77
2023/10/03 08:31:58;;;;;;;10.02;4.63;;;17.50;99.90;;;;;;5111530;27;20116;-76
2023/10/03 08:34:27;;;;;;;;;;;17.50;99.90;;;;;;5112164;27;20093;-76
2023/10/03 08:36:54;;;;;;;12.60;5.40;;;17.30;99.90;;;;;;5112417;27;19950;-77
2023/10/03 08:39:22;;;;;;;14.80;4.32;;;17.30;99.90;;;;;;5094373;27;20050;-76
2023/10/03 08:42:00;;;;;;;11.77;3.67;;;17.30;99.90;;;;;;5112818;27;20054;-77
2023/10/03 08:44:36;;;;;;;10.30;3.15;;;17.30;99.90;;;;;;5110291;27;20473;-76
2023/10/03 08:47:10;;;;;;;12.38;2.78;;;17.30;99.90;;;;;;5113477;27;20046;-76
2023/10/03 08:49:39;;;;;;;11.25;3.53;;;17.20;99.90;;;;;;5094081;27;20047;-75
2023/10/03 08:52:06;;;;;;;9.75;3.05;;;17.10;99.90;;;;;;5108314;27;20062;-77
2023/10/03 08:54:36;;;;;;;11.30;3.13;;;17.00;99.90;;;;;;5113453;27;21035;-77
2023/10/03 08:57:04;;;;;;;12.02;2.85;;;17.10;99.90;;;;;;5095070;27;20070;-76
2023/10/03 08:59:33;;;;;;;10.20;3.00;;;17.10;99.90;;;;;;5108905;27;20536;-77
2023/10/03 09:02:14;;;;;;;11.55;2.63;;;17.10;99.90;;;;;;5105844;27;20271;-77
2023/10/03 09:04:41;;;;;;;7.40;1.90;;;17.10;99.90;;;;;;5087939;27;20070;-76
2023/10/03 09:07:09;;;;;;;7.85;1.95;;;17.20;99.90;;;;;;5094484;27;20075;-77
2023/10/03 09:09:42;;;;;;;8.00;1.70;;;17.10;99.90;;;;;;5092808;27;21445;-77
2023/10/03 09:12:12;;;;;;;10.55;2.22;;;17.10;99.90;;;;;;5095398;27;20503;-78
2023/10/03 09:14:41;;;;;;;8.77;1.75;;;17.20;99.90;;;;;;5107584;27;20050;-77
2023/10/03 09:17:07;;;;;;;7.82;1.50;;;17.10;99.90;;;;;;5110746;27;20039;-77
2023/10/03 09:19:42;;;;;;;7.70;1.40;;;17.20;99.90;;;;;;5108996;27;20710;-77
2023/10/03 09:22:09;;;;;;;7.35;1.17;;;17.20;99.90;;;;;;5110074;27;20768;-77
2023/10/03 09:24:43;;;;;;;4.65;0.88;;;17.10;99.90;;;;;;5111424;27;20258;-77
2023/10/03 09:27:20;;;;;;;7.05;1.50;;;17.00;99.90;;;;;;5086484;27;20050;-77
2023/10/03 09:29:49;;;;;;;4.75;0.63;;;16.90;99.90;;;;;;5107260;27;20058;-75
2023/10/03 09:32:20;;;;;;;6.15;0.82;;;16.80;99.90;;;;;;5093758;27;20333;-75
2023/10/03 09:35:09;;;;;;;6.93;1.17;;;16.70;99.90;;;;;;5093544;27;20515;-76
2023/10/03 09:37:35;;;;;;;5.55;1.05;;;16.60;99.90;;;;;;5108553;27;20751;-77
2023/10/03 09:40:16;;;;;;;7.15;1.00;;;16.50;99.90;;;;;;5109392;27;20046;-77
2023/10/03 09:42:48;;;;;;;6.72;1.10;;;16.40;99.90;;;;;;5091141;27;20464;-77
2023/10/03 09:45:24;;;;;;;4.53;0.80;;;16.50;99.90;;;;;;5092405;27;20493;-75
2023/10/03 09:47:58;;;;;;;6.97;0.93;;;16.40;99.90;;;;;;5092734;27;20659;-77
2023/10/03 09:50:30;;;;;;;6.00;0.68;;;16.30;99.90;;;;;;5108591;27;20580;-77
2023/10/03 09:53:01;;;;;;;5.75;0.90;;;16.30;99.90;;;;;;5094479;27;20103;-77
2023/10/03 09:55:46;;;;;;;5.45;0.80;;;16.20;99.90;;;;;;5093636;27;20612;-77
2023/10/03 09:58:13;;;;;;;5.88;0.98;;;16.10;99.90;;;;;;5111094;27;20075;-77
2023/10/03 10:00:53;;;;;;;5.10;0.52;;;16.10;99.90;;;;;;5110389;27;20619;-77
2023/10/03 10:03:28;;;;;;;6.93;1.00;;;16.10;99.90;;;;;;5094947;27;20564;-76
2023/10/03 10:06:21;;;;;;;5.45;0.70;;;16.10;99.90;;;;;;5093051;27;20042;-77
2023/10/03 10:09:00;;;;;;;5.35;0.80;;;16.10;99.90;;;;;;5093356;27;20599;-76
2023/10/03 10:11:27;;;;;;;4.47;0.90;;;16.10;99.90;;;;;;5095141;27;20151;-76
2023/10/03 10:14:09;;;;;;;6.10;0.73;;;16.10;99.90;;;;;;5093657;27;20043;-77
2023/10/03 10:16:54;;;;;;;5.25;1.25;;;16.20;99.90;;;;;;5112044;27;20213;-76
2023/10/03 10:19:21;;;;;;;4.03;1.17;;;16.10;99.90;;;;;;5094855;27;20043;-77
2023/10/03 10:21:59;;;;;;;4.50;0.93;;;16.10;99.90;;;;;;5093068;27;20046;-77
2023/10/03 10:24:27;;;;;;;5.72;0.75;;;16.10;99.90;;;;;;5092958;27;20073;-76
2023/10/03 10:26:53;;;;;;;4.47;0.70;;;16.10;99.90;;;;;;5108632;27;21148;-77
2023/10/03 10:29:24;;;;;;;4.75;0.90;;;16.10;99.90;;;;;;5093714;27;20046;-77
2023/10/03 10:31:57;;;;;;;6.03;0.90;;;16.10;99.90;;;;;;5090656;27;20134;-75
2023/10/03 10:34:32;;;;;;;4.15;1.13;;;16.20;99.90;;;;;;5093591;27;20118;-77
2023/10/03 10:37:04;;;;;;;4.80;1.20;;;16.20;99.90;;;;;;5094570;27;20049;-78
2023/10/03 10:40:10;;;;;;;3.80;0.73;;;16.20;99.90;;;;;;5093369;27;20054;-76
2023/10/03 10:43:16;;;;;;;3.00;0.90;;;16.20;99.90;;;;;;5109150;27;20054;-77
2023/10/03 10:45:44;;;;;;;6.70;1.10;;;16.20;99.90;;;;;;4998756;28;20529;-78
2023/10/03 10:48:12;;;;;;;4.25;0.80;;;16.20;99.90;;;;;;5004130;28;20047;-78
2023/10/03 10:51:07;;;;;;;5.38;1.10;;;16.10;99.90;;;;;;5041260;28;20517;-78
2023/10/03 10:53:42;;;;;;;4.30;1.35;;;16.20;99.90;;;;;;5056988;28;20042;-77
2023/10/03 10:56:09;;;;;;;3.58;0.90;;;16.20;99.90;;;;;;5073351;28;20627;-78
2023/10/03 10:59:07;;;;;;;5.15;1.13;;;16.20;99.90;;;;;;5054945;28;20039;-76
2023/10/03 11:01:38;;;;;;;8.90;1.58;;;16.30;99.90;;;;;;5056490;28;20051;-78
2023/10/03 11:04:21;;;;;;;6.07;1.38;;;16.30;99.90;;;;;;5056425;28;21144;-78
2023/10/03 11:06:52;;;;;;;6.68;1.45;;;16.30;99.90;;;;;;5071408;28;20576;-77
2023/10/03 11:09:22;;;;;;;5.03;1.10;;;16.30;99.90;;;;;;5073512;28;20057;-78
2023/10/03 11:11:51;;;;;;;3.58;1.10;;;16.30;99.90;;;;;;5071801;28;20047;-78
2023/10/03 11:14:47;;;;;;;4.65;1.17;;;16.40;99.90;;;;;;5058034;28;20127;-78
2023/10/03 11:17:15;;;;;;;7.38;1.45;;;16.50;99.90;;;;;;5055119;28;20091;-78
2023/10/03 11:19:41;;;;;;;3.78;1.15;;;16.50;99.90;;;;;;5072580;28;20044;-79
2023/10/03 11:22:12;;;;;;;6.13;1.48;;;16.60;99.90;;;;;;5072250;28;20414;-79
2023/10/03 11:24:40;;;;;;;5.80;1.50;;;16.50;99.90;;;;;;5055556;28;20143;-78
2023/10/03 11:27:06;;;;;;;6.90;1.42;;;16.60;99.90;;;;;;5055782;28;20047;-78
2023/10/03 11:29:39;;;;;;;6.38;1.85;;;16.50;99.90;;;;;;5073255;28;20492;-78
2023/10/03 11:32:15;;;;;;;8.82;1.67;;;16.50;99.90;;;;;;5054162;28;20047;-78
2023/10/03 11:34:41;;;;;;;6.03;1.45;;;16.40;99.90;;;;;;5070353;28;20044;-77
2023/10/03 11:37:07;;;;;;;6.20;1.35;;;16.30;99.90;;;;;;5071737;28;20039;-77
2023/10/03 11:39:38;;;;;;;6.25;1.65;;;16.10;99.90;;;;;;5055277;28;20097;-77
2023/10/03 11:42:25;;;;;;;5.10;1.30;;;15.90;99.90;;;;;;5070743;28;20337;-77
2023/10/03 11:45:00;;;;;;;4.78;1.08;;;15.80;99.90;;;;;;5074659;27;20059;-77
2023/10/03 11:47:27;;;;;;;5.82;1.00;;;15.60;99.90;;;;;;5112492;27;20619;-76
2023/10/03 11:49:53;;;;;;;4.55;1.25;;;15.50;99.90;;;;;;5097351;27;20403;-77
2023/10/03 11:52:21;;;;;;;4.07;1.13;;;15.40;99.90;;;;;;5094030;27;20047;-76
2023/10/03 11:54:47;;;;;;;4.20;1.50;;;15.30;99.90;;;;;;5097281;27;20042;-76
2023/10/03 11:57:13;;;;;;;3.78;1.33;;;15.30;99.90;;;;;;5094694;27;20078;-75
2023/10/03 11:59:42;;;;;;;5.00;1.38;;;15.30;99.90;;;;;;5096847;27;20110;-76
2023/10/03 12:02:08;;;;;;;5.22;1.40;;;15.30;99.90;;;;;;5109615;27;20055;-76
2023/10/03 12:04:34;;;;;;;6.65;2.08;;;15.30;99.90;;;;;;5110359;27;20269;-76
2023/10/03 12:07:01;;;;;;;7.72;2.17;;;15.30;99.90;;;;;;5111428;27;20054;-76
2023/10/03 12:09:30;;;;;;;8.45;2.20;;;15.30;99.90;;;;;;5093911;27;20042;-78
2023/10/03 12:11:57;;;;;;;6.55;2.35;;;15.20;99.90;;;;;;5094137;27;20322;-75
2023/10/03 12:14:23;;;;;;;6.20;2.08;;;15.10;99.90;;;;;;5111017;27;20055;-76
2023/10/03 12:16:51;;;;;;;8.38;2.25;;;15.10;99.90;;;;;;5093565;27;20047;-75
2023/10/03 12:19:21;;;;;;;7.38;2.42;;;15.00;99.90;;;;;;5110355;27;20089;-82
2023/10/03 12:21:47;;;;;;;8.15;2.72;;;14.90;99.90;;;;;;5094214;27;20051;-82
2023/10/03 12:24:14;;;;;;;8.95;2.45;;;14.90;99.90;;;;;;5088940;27;20042;-82
2023/10/03 12:26:40;;;;;;;5.68;2.35;;;14.80;99.90;;;;;;5109982;27;20050;-82
2023/10/03 12:29:07;;;;;;;6.57;2.70;;;14.70;99.90;;;;;;5095228;27;21012;-83
2023/10/03 12:31:33;;;;;;;8.20;2.72;;;14.70;99.90;;;;;;5111260;27;20569;-82
2023/10/03 12:34:01;;;;;;;9.02;2.60;;;14.70;99.90;;;;;;5113068;27;20049;-82
2023/10/03 12:36:32;;;;;;;8.65;2.83;;;14.70;99.90;;;;;;5094464;27;20049;-82
2023/10/03 12:39:05;;;;;;;8.13;2.70;;;14.70;99.90;;;;;;5106980;27;20054;-82
2023/10/03 12:41:31;;;;;;;11.55;2.97;;;14.70;99.90;;;;;;5112055;27;20078;-82
2023/10/03 12:43:57;;;;;;;8.88;3.15;;;14.70;99.90;;;;;;5093176;27;20095;-82
2023/10/03 12:46:24;;;;;;;8.55;2.65;;;14.80;99.90;;;;;;5094226;27;20058;-82